sensor_id;sensor_type;location;lat;lon;timestamp;temperature;humidity
3868;DHT22;1949;48.152;11.528;2022-09-09T00:00:14;23.40;43.50
3868;DHT22;1949;48.152;11.528;2022-09-09T00:05:41;23.30;43.50
3868;DHT22;1949;48.152;11.528;2022-09-09T00:08:21;23.30;43.50
3868;DHT22;1949;48.152;11.528;2022-09-09T00:10:54;23.20;43.50
3868;DHT22;1949;48.152;11.528;2022-09-09T00:16:20;23.20;43.80
3868;DHT22;1949;48.152;11.528;2022-09-09T00:22:19;23.30;43.70
3868;DHT22;1949;48.152;11.528;2022-09-09T00:24:49;23.30;43.60
3868;DHT22;1949;48.152;11.528;2022-09-09T00:27:31;23.40;43.70
3868;DHT22;1949;48.152;11.528;2022-09-09T00:30:01;23.40;43.70
3868;DHT22;1949;48.152;11.528;2022-09-09T00:32:30;23.40;43.80
3868;DHT22;1949;48.152;11.528;2022-09-09T00:35:18;23.40;43.80
3868;DHT22;1949;48.152;11.528;2022-09-09T00:37:48;23.50;43.80
3868;DHT22;1949;48.152;11.528;2022-09-09T00:40:45;23.50;43.70
3868;DHT22;1949;48.152;11.528;2022-09-09T00:51:18;23.50;43.60
3868;DHT22;1949;48.152;11.528;2022-09-09T00:56:46;23.50;43.70
3868;DHT22;1949;48.152;11.528;2022-09-09T00:59:28;23.50;43.70
3868;DHT22;1949;48.152;11.528;2022-09-09T01:01:58;23.50;43.70
3868;DHT22;1949;48.152;11.528;2022-09-09T01:04:34;23.50;43.70
3868;DHT22;1949;48.152;11.528;2022-09-09T01:07:14;23.50;43.70
3868;DHT22;1949;48.152;11.528;2022-09-09T01:09:54;23.50;43.70
3868;DHT22;1949;48.152;11.528;2022-09-09T01:15:11;23.40;43.60
3868;DHT22;1949;48.152;11.528;2022-09-09T01:20:24;23.30;43.80
3868;DHT22;1949;48.152;11.528;2022-09-09T01:24:00;23.30;43.90
3868;DHT22;1949;48.152;11.528;2022-09-09T01:28:40;23.30;43.90
3868;DHT22;1949;48.152;11.528;2022-09-09T01:31:11;23.30;43.90
3868;DHT22;1949;48.152;11.528;2022-09-09T01:33:40;23.30;43.90
3868;DHT22;1949;48.152;11.528;2022-09-09T01:36:16;23.30;43.90
3868;DHT22;1949;48.152;11.528;2022-09-09T01:38:45;23.30;44.00
3868;DHT22;1949;48.152;11.528;2022-09-09T01:41:11;23.30;44.00
3868;DHT22;1949;48.152;11.528;2022-09-09T01:43:37;23.20;44.00
3868;DHT22;1949;48.152;11.528;2022-09-09T01:46:03;23.10;43.90
3868;DHT22;1949;48.152;11.528;2022-09-09T01:48:30;23.20;44.00
3868;DHT22;1949;48.152;11.528;2022-09-09T01:50:56;23.30;44.20
3868;DHT22;1949;48.152;11.528;2022-09-09T01:53:22;23.20;44.10
3868;DHT22;1949;48.152;11.528;2022-09-09T02:04:08;23.20;44.00
3868;DHT22;1949;48.152;11.528;2022-09-09T02:06:40;23.30;44.10
3868;DHT22;1949;48.152;11.528;2022-09-09T02:09:07;23.20;44.10
3868;DHT22;1949;48.152;11.528;2022-09-09T02:11:35;23.30;44.30
3868;DHT22;1949;48.152;11.528;2022-09-09T02:14:30;23.20;44.20
3868;DHT22;1949;48.152;11.528;2022-09-09T02:17:01;23.20;44.10
3868;DHT22;1949;48.152;11.528;2022-09-09T02:19:38;23.20;44.20
3868;DHT22;1949;48.152;11.528;2022-09-09T02:22:05;23.20;44.20
3868;DHT22;1949;48.152;11.528;2022-09-09T02:24:34;23.30;44.20
3868;DHT22;1949;48.152;11.528;2022-09-09T02:27:03;23.20;44.20
3868;DHT22;1949;48.152;11.528;2022-09-09T02:29:39;23.30;44.20
3868;DHT22;1949;48.152;11.528;2022-09-09T02:32:09;23.20;44.20
3868;DHT22;1949;48.152;11.528;2022-09-09T02:34:41;23.20;44.20
3868;DHT22;1949;48.152;11.528;2022-09-09T02:37:09;23.20;44.30
3868;DHT22;1949;48.152;11.528;2022-09-09T02:39:36;23.20;44.30
3868;DHT22;1949;48.152;11.528;2022-09-09T02:42:04;23.20;44.30
3868;DHT22;1949;48.152;11.528;2022-09-09T02:44:30;23.20;44.40
3868;DHT22;1949;48.152;11.528;2022-09-09T02:52:27;23.20;44.40
3868;DHT22;1949;48.152;11.528;2022-09-09T02:54:59;23.20;44.50
3868;DHT22;1949;48.152;11.528;2022-09-09T02:57:30;23.10;44.40
3868;DHT22;1949;48.152;11.528;2022-09-09T02:59:58;23.10;44.50
3868;DHT22;1949;48.152;11.528;2022-09-09T03:02:24;23.10;44.50
3868;DHT22;1949;48.152;11.528;2022-09-09T03:04:50;23.00;44.60
3868;DHT22;1949;48.152;11.528;2022-09-09T03:07:18;23.00;44.70
3868;DHT22;1949;48.152;11.528;2022-09-09T03:09:44;23.00;44.80
3868;DHT22;1949;48.152;11.528;2022-09-09T03:12:10;23.00;44.90
3868;DHT22;1949;48.152;11.528;2022-09-09T03:14:37;23.00;44.90
3868;DHT22;1949;48.152;11.528;2022-09-09T03:17:04;23.00;45.00
3868;DHT22;1949;48.152;11.528;2022-09-09T03:19:29;23.00;45.10
3868;DHT22;1949;48.152;11.528;2022-09-09T03:21:58;23.00;45.10
3868;DHT22;1949;48.152;11.528;2022-09-09T03:24:24;23.00;45.10
3868;DHT22;1949;48.152;11.528;2022-09-09T03:26:52;23.10;45.10
3868;DHT22;1949;48.152;11.528;2022-09-09T03:29:18;23.10;45.00
3868;DHT22;1949;48.152;11.528;2022-09-09T03:31:44;23.10;45.00
3868;DHT22;1949;48.152;11.528;2022-09-09T03:34:10;23.10;45.00
3868;DHT22;1949;48.152;11.528;2022-09-09T03:36:36;23.10;45.00
3868;DHT22;1949;48.152;11.528;2022-09-09T03:39:03;23.10;45.10
3868;DHT22;1949;48.152;11.528;2022-09-09T03:41:29;23.10;45.40
3868;DHT22;1949;48.152;11.528;2022-09-09T03:43:55;23.10;45.10
3868;DHT22;1949;48.152;11.528;2022-09-09T03:46:24;23.10;45.00
3868;DHT22;1949;48.152;11.528;2022-09-09T03:48:50;23.10;45.10
3868;DHT22;1949;48.152;11.528;2022-09-09T03:51:18;23.10;45.10
3868;DHT22;1949;48.152;11.528;2022-09-09T03:53:44;23.10;45.20
3868;DHT22;1949;48.152;11.528;2022-09-09T03:56:10;23.10;45.20
3868;DHT22;1949;48.152;11.528;2022-09-09T03:58:37;23.10;45.10
3868;DHT22;1949;48.152;11.528;2022-09-09T04:01:06;23.00;45.10
3868;DHT22;1949;48.152;11.528;2022-09-09T04:03:34;23.00;45.10
3868;DHT22;1949;48.152;11.528;2022-09-09T04:06:03;23.00;45.00
3868;DHT22;1949;48.152;11.528;2022-09-09T04:08:29;23.00;45.20
3868;DHT22;1949;48.152;11.528;2022-09-09T04:10:58;22.90;45.20
3868;DHT22;1949;48.152;11.528;2022-09-09T04:13:26;22.90;45.30
3868;DHT22;1949;48.152;11.528;2022-09-09T04:15:57;22.80;45.20
3868;DHT22;1949;48.152;11.528;2022-09-09T04:18:25;22.80;45.40
3868;DHT22;1949;48.152;11.528;2022-09-09T04:20:52;22.80;45.40
3868;DHT22;1949;48.152;11.528;2022-09-09T04:23:18;22.80;45.60
3868;DHT22;1949;48.152;11.528;2022-09-09T04:25:46;22.80;45.50
3868;DHT22;1949;48.152;11.528;2022-09-09T04:28:13;22.70;45.50
3868;DHT22;1949;48.152;11.528;2022-09-09T04:30:40;22.70;45.60
3868;DHT22;1949;48.152;11.528;2022-09-09T04:33:06;22.70;45.50
3868;DHT22;1949;48.152;11.528;2022-09-09T04:35:32;22.70;45.60
3868;DHT22;1949;48.152;11.528;2022-09-09T04:37:58;22.70;45.70
3868;DHT22;1949;48.152;11.528;2022-09-09T04:40:24;22.70;45.80
3868;DHT22;1949;48.152;11.528;2022-09-09T04:42:51;22.70;45.80
3868;DHT22;1949;48.152;11.528;2022-09-09T04:45:17;22.70;45.80
3868;DHT22;1949;48.152;11.528;2022-09-09T04:47:44;22.70;45.60
3868;DHT22;1949;48.152;11.528;2022-09-09T04:50:09;22.70;45.60
3868;DHT22;1949;48.152;11.528;2022-09-09T04:52:36;22.80;45.60
3868;DHT22;1949;48.152;11.528;2022-09-09T04:55:03;22.70;45.60
3868;DHT22;1949;48.152;11.528;2022-09-09T04:57:29;22.70;45.70
3868;DHT22;1949;48.152;11.528;2022-09-09T04:59:57;22.70;45.70
3868;DHT22;1949;48.152;11.528;2022-09-09T05:02:23;22.70;45.70
3868;DHT22;1949;48.152;11.528;2022-09-09T05:04:49;22.70;45.80
3868;DHT22;1949;48.152;11.528;2022-09-09T05:07:15;22.70;45.70
3868;DHT22;1949;48.152;11.528;2022-09-09T05:09:40;22.70;45.70
3868;DHT22;1949;48.152;11.528;2022-09-09T05:12:06;22.70;45.80
3868;DHT22;1949;48.152;11.528;2022-09-09T05:14:32;22.70;45.80
3868;DHT22;1949;48.152;11.528;2022-09-09T05:16:58;22.70;45.80
3868;DHT22;1949;48.152;11.528;2022-09-09T05:19:23;22.70;45.80
3868;DHT22;1949;48.152;11.528;2022-09-09T05:21:49;22.70;45.80
3868;DHT22;1949;48.152;11.528;2022-09-09T05:24:16;22.70;45.60
3868;DHT22;1949;48.152;11.528;2022-09-09T05:26:43;22.70;46.20
3868;DHT22;1949;48.152;11.528;2022-09-09T05:29:09;22.60;45.60
3868;DHT22;1949;48.152;11.528;2022-09-09T05:31:35;22.60;45.80
3868;DHT22;1949;48.152;11.528;2022-09-09T05:34:02;22.60;45.80
3868;DHT22;1949;48.152;11.528;2022-09-09T05:36:28;22.60;45.90
3868;DHT22;1949;48.152;11.528;2022-09-09T05:38:54;22.60;45.90
3868;DHT22;1949;48.152;11.528;2022-09-09T05:41:20;22.70;45.90
3868;DHT22;1949;48.152;11.528;2022-09-09T05:43:46;22.70;45.90
3868;DHT22;1949;48.152;11.528;2022-09-09T05:46:16;22.70;45.90
3868;DHT22;1949;48.152;11.528;2022-09-09T05:48:44;22.70;45.90
3868;DHT22;1949;48.152;11.528;2022-09-09T05:51:19;22.70;45.80
3868;DHT22;1949;48.152;11.528;2022-09-09T05:53:48;22.70;45.90
3868;DHT22;1949;48.152;11.528;2022-09-09T05:56:15;22.70;45.90
3868;DHT22;1949;48.152;11.528;2022-09-09T05:58:41;22.70;46.50
3868;DHT22;1949;48.152;11.528;2022-09-09T06:01:13;22.70;46.00
3868;DHT22;1949;48.152;11.528;2022-09-09T06:03:41;22.70;46.00
3868;DHT22;1949;48.152;11.528;2022-09-09T06:06:09;22.70;45.80
3868;DHT22;1949;48.152;11.528;2022-09-09T06:08:38;22.70;45.90
3868;DHT22;1949;48.152;11.528;2022-09-09T06:11:08;22.70;46.00
3868;DHT22;1949;48.152;11.528;2022-09-09T06:13:36;22.70;45.90
3868;DHT22;1949;48.152;11.528;2022-09-09T06:16:17;22.70;46.00
3868;DHT22;1949;48.152;11.528;2022-09-09T06:18:48;22.70;45.80
3868;DHT22;1949;48.152;11.528;2022-09-09T06:21:27;22.70;46.00
3868;DHT22;1949;48.152;11.528;2022-09-09T06:24:00;22.70;46.00
3868;DHT22;1949;48.152;11.528;2022-09-09T06:26:30;22.60;46.10
3868;DHT22;1949;48.152;11.528;2022-09-09T06:29:07;22.70;46.10
3868;DHT22;1949;48.152;11.528;2022-09-09T06:31:35;22.60;46.00
3868;DHT22;1949;48.152;11.528;2022-09-09T06:34:05;22.60;46.00
3868;DHT22;1949;48.152;11.528;2022-09-09T06:36:37;22.60;45.90
3868;DHT22;1949;48.152;11.528;2022-09-09T06:39:06;22.60;46.00
3868;DHT22;1949;48.152;11.528;2022-09-09T06:41:36;22.60;45.90
3868;DHT22;1949;48.152;11.528;2022-09-09T06:44:02;22.50;46.00
3868;DHT22;1949;48.152;11.528;2022-09-09T06:46:31;22.50;46.20
3868;DHT22;1949;48.152;11.528;2022-09-09T06:49:00;22.50;46.00
3868;DHT22;1949;48.152;11.528;2022-09-09T06:51:34;22.50;46.00
3868;DHT22;1949;48.152;11.528;2022-09-09T06:54:07;22.50;46.20
3868;DHT22;1949;48.152;11.528;2022-09-09T06:56:43;22.50;46.30
3868;DHT22;1949;48.152;11.528;2022-09-09T06:59:10;22.50;46.30
3868;DHT22;1949;48.152;11.528;2022-09-09T07:01:39;22.50;46.20
3868;DHT22;1949;48.152;11.528;2022-09-09T07:04:16;22.50;46.10
3868;DHT22;1949;48.152;11.528;2022-09-09T07:06:44;22.50;46.30
3868;DHT22;1949;48.152;11.528;2022-09-09T07:09:13;22.50;46.20
3868;DHT22;1949;48.152;11.528;2022-09-09T07:11:45;22.50;46.20
3868;DHT22;1949;48.152;11.528;2022-09-09T07:14:11;22.40;46.30
3868;DHT22;1949;48.152;11.528;2022-09-09T07:16:41;22.40;46.40
3868;DHT22;1949;48.152;11.528;2022-09-09T07:19:07;22.40;46.50
3868;DHT22;1949;48.152;11.528;2022-09-09T07:21:33;22.40;46.60
3868;DHT22;1949;48.152;11.528;2022-09-09T07:23:59;22.40;46.70
3868;DHT22;1949;48.152;11.528;2022-09-09T07:26:34;22.40;46.70
3868;DHT22;1949;48.152;11.528;2022-09-09T07:29:02;22.40;46.80
3868;DHT22;1949;48.152;11.528;2022-09-09T07:31:29;22.40;46.80
3868;DHT22;1949;48.152;11.528;2022-09-09T07:33:56;22.50;46.90
3868;DHT22;1949;48.152;11.528;2022-09-09T07:36:28;22.50;46.90
3868;DHT22;1949;48.152;11.528;2022-09-09T07:38:58;22.50;46.90
3868;DHT22;1949;48.152;11.528;2022-09-09T07:41:30;22.60;46.90
3868;DHT22;1949;48.152;11.528;2022-09-09T07:44:07;22.60;46.90
3868;DHT22;1949;48.152;11.528;2022-09-09T07:46:42;22.70;47.00
3868;DHT22;1949;48.152;11.528;2022-09-09T07:49:09;22.70;46.90
3868;DHT22;1949;48.152;11.528;2022-09-09T07:51:38;22.70;46.90
3868;DHT22;1949;48.152;11.528;2022-09-09T07:54:09;22.70;47.00
3868;DHT22;1949;48.152;11.528;2022-09-09T07:56:36;22.70;46.90
3868;DHT22;1949;48.152;11.528;2022-09-09T07:59:03;22.70;46.90
3868;DHT22;1949;48.152;11.528;2022-09-09T08:01:36;22.70;46.90
3868;DHT22;1949;48.152;11.528;2022-09-09T08:04:10;22.80;46.90
3868;DHT22;1949;48.152;11.528;2022-09-09T08:06:41;22.80;46.80
3868;DHT22;1949;48.152;11.528;2022-09-09T08:09:08;22.80;47.00
3868;DHT22;1949;48.152;11.528;2022-09-09T08:11:34;22.80;47.00
3868;DHT22;1949;48.152;11.528;2022-09-09T08:14:02;22.80;47.00
3868;DHT22;1949;48.152;11.528;2022-09-09T08:16:31;22.90;47.10
3868;DHT22;1949;48.152;11.528;2022-09-09T08:18:57;22.90;47.10
3868;DHT22;1949;48.152;11.528;2022-09-09T08:21:27;22.90;47.00
3868;DHT22;1949;48.152;11.528;2022-09-09T08:23:56;22.90;47.10
3868;DHT22;1949;48.152;11.528;2022-09-09T08:26:24;22.90;47.00
3868;DHT22;1949;48.152;11.528;2022-09-09T08:28:53;22.90;47.00
3868;DHT22;1949;48.152;11.528;2022-09-09T08:31:34;22.90;47.00
3868;DHT22;1949;48.152;11.528;2022-09-09T08:34:02;22.90;46.90
3868;DHT22;1949;48.152;11.528;2022-09-09T08:36:46;22.90;47.20
3868;DHT22;1949;48.152;11.528;2022-09-09T08:39:18;22.90;47.30
3868;DHT22;1949;48.152;11.528;2022-09-09T08:50:24;23.00;47.50
3868;DHT22;1949;48.152;11.528;2022-09-09T08:53:05;23.00;47.50
3868;DHT22;1949;48.152;11.528;2022-09-09T08:58:23;23.00;47.80
3868;DHT22;1949;48.152;11.528;2022-09-09T09:01:15;23.00;47.80
3868;DHT22;1949;48.152;11.528;2022-09-09T09:11:58;23.10;48.00
3868;DHT22;1949;48.152;11.528;2022-09-09T09:14:35;23.10;48.10
3868;DHT22;1949;48.152;11.528;2022-09-09T09:17:19;23.00;48.00
3868;DHT22;1949;48.152;11.528;2022-09-09T09:19:52;23.00;48.10
3868;DHT22;1949;48.152;11.528;2022-09-09T09:22:32;23.00;48.20
3868;DHT22;1949;48.152;11.528;2022-09-09T09:25:21;23.00;48.30
3868;DHT22;1949;48.152;11.528;2022-09-09T09:31:01;23.00;48.10
3868;DHT22;1949;48.152;11.528;2022-09-09T09:36:08;23.00;48.00
3868;DHT22;1949;48.152;11.528;2022-09-09T09:38:36;23.00;47.70
3868;DHT22;1949;48.152;11.528;2022-09-09T09:41:03;23.00;47.90
3868;DHT22;1949;48.152;11.528;2022-09-09T09:43:34;23.00;47.60
3868;DHT22;1949;48.152;11.528;2022-09-09T09:46:00;23.00;47.50
3868;DHT22;1949;48.152;11.528;2022-09-09T09:48:28;23.00;47.40
3868;DHT22;1949;48.152;11.528;2022-09-09T09:51:08;23.00;47.40
3868;DHT22;1949;48.152;11.528;2022-09-09T09:53:37;23.00;47.30
3868;DHT22;1949;48.152;11.528;2022-09-09T09:56:07;23.00;47.40
3868;DHT22;1949;48.152;11.528;2022-09-09T09:58:52;23.00;47.50
3868;DHT22;1949;48.152;11.528;2022-09-09T10:04:03;23.00;47.50
3868;DHT22;1949;48.152;11.528;2022-09-09T10:06:35;23.00;47.60
3868;DHT22;1949;48.152;11.528;2022-09-09T10:09:03;22.90;47.50
3868;DHT22;1949;48.152;11.528;2022-09-09T10:14:24;22.90;47.70
3868;DHT22;1949;48.152;11.528;2022-09-09T10:19:48;23.00;47.90
3868;DHT22;1949;48.152;11.528;2022-09-09T10:22:34;23.00;47.80
3868;DHT22;1949;48.152;11.528;2022-09-09T10:25:31;23.00;47.80
3868;DHT22;1949;48.152;11.528;2022-09-09T10:28:38;23.00;47.70
3868;DHT22;1949;48.152;11.528;2022-09-09T10:36:49;23.00;47.90
3868;DHT22;1949;48.152;11.528;2022-09-09T10:39:36;22.90;47.80
3868;DHT22;1949;48.152;11.528;2022-09-09T10:42:12;22.90;47.80
3868;DHT22;1949;48.152;11.528;2022-09-09T10:45:32;23.00;47.80
3868;DHT22;1949;48.152;11.528;2022-09-09T10:48:30;22.90;47.70
3868;DHT22;1949;48.152;11.528;2022-09-09T10:51:20;22.90;47.70
3868;DHT22;1949;48.152;11.528;2022-09-09T10:54:05;22.90;47.80
3868;DHT22;1949;48.152;11.528;2022-09-09T10:56:34;22.80;47.90
3868;DHT22;1949;48.152;11.528;2022-09-09T10:59:09;22.90;47.90
3868;DHT22;1949;48.152;11.528;2022-09-09T11:01:44;22.90;47.90
3868;DHT22;1949;48.152;11.528;2022-09-09T11:04:28;23.00;48.00
3868;DHT22;1949;48.152;11.528;2022-09-09T11:07:01;23.00;47.80
3868;DHT22;1949;48.152;11.528;2022-09-09T11:09:37;23.10;47.80
3868;DHT22;1949;48.152;11.528;2022-09-09T11:12:05;23.10;47.60
3868;DHT22;1949;48.152;11.528;2022-09-09T11:17:40;23.20;47.60
3868;DHT22;1949;48.152;11.528;2022-09-09T11:20:11;23.20;47.40
3868;DHT22;1949;48.152;11.528;2022-09-09T11:23:00;23.30;47.40
3868;DHT22;1949;48.152;11.528;2022-09-09T11:25:38;23.30;47.10
3868;DHT22;1949;48.152;11.528;2022-09-09T11:34:25;23.30;47.00
3868;DHT22;1949;48.152;11.528;2022-09-09T11:44:41;23.40;47.20
3868;DHT22;1949;48.152;11.528;2022-09-09T11:47:36;23.40;46.90
3868;DHT22;1949;48.152;11.528;2022-09-09T11:50:33;23.40;46.60
3868;DHT22;1949;48.152;11.528;2022-09-09T11:53:27;23.20;46.40
3868;DHT22;1949;48.152;11.528;2022-09-09T11:56:12;23.10;46.60
3868;DHT22;1949;48.152;11.528;2022-09-09T12:01:43;22.90;46.80
3868;DHT22;1949;48.152;11.528;2022-09-09T12:09:52;22.70;47.30
3868;DHT22;1949;48.152;11.528;2022-09-09T12:12:23;22.80;47.50
3868;DHT22;1949;48.152;11.528;2022-09-09T12:15:46;22.80;47.20
3868;DHT22;1949;48.152;11.528;2022-09-09T12:17:51;22.80;47.00
3868;DHT22;1949;48.152;11.528;2022-09-09T12:29:02;23.00;47.30
3868;DHT22;1949;48.152;11.528;2022-09-09T12:36:54;23.20;47.10
3868;DHT22;1949;48.152;11.528;2022-09-09T12:39:45;23.20;47.00
3868;DHT22;1949;48.152;11.528;2022-09-09T12:42:20;23.30;47.20
3868;DHT22;1949;48.152;11.528;2022-09-09T12:44:57;23.40;47.20
3868;DHT22;1949;48.152;11.528;2022-09-09T12:49:52;23.50;46.90
3868;DHT22;1949;48.152;11.528;2022-09-09T12:54:58;23.50;46.80
3868;DHT22;1949;48.152;11.528;2022-09-09T12:57:26;23.50;46.70
3868;DHT22;1949;48.152;11.528;2022-09-09T13:00:05;23.50;46.50
3868;DHT22;1949;48.152;11.528;2022-09-09T13:02:32;23.50;46.60
3868;DHT22;1949;48.152;11.528;2022-09-09T13:05:13;23.40;46.80
3868;DHT22;1949;48.152;11.528;2022-09-09T13:07:40;23.40;46.90
3868;DHT22;1949;48.152;11.528;2022-09-09T13:10:07;23.40;47.00
3868;DHT22;1949;48.152;11.528;2022-09-09T13:12:35;23.40;46.90
3868;DHT22;1949;48.152;11.528;2022-09-09T13:15:01;23.40;46.90
3868;DHT22;1949;48.152;11.528;2022-09-09T13:17:28;23.30;47.10
3868;DHT22;1949;48.152;11.528;2022-09-09T13:19:58;23.40;47.20
3868;DHT22;1949;48.152;11.528;2022-09-09T13:22:31;23.40;47.10
3868;DHT22;1949;48.152;11.528;2022-09-09T13:25:26;23.40;46.90
3868;DHT22;1949;48.152;11.528;2022-09-09T13:28:04;23.40;47.10
3868;DHT22;1949;48.152;11.528;2022-09-09T13:30:31;23.40;47.20
3868;DHT22;1949;48.152;11.528;2022-09-09T13:35:55;23.50;47.20
3868;DHT22;1949;48.152;11.528;2022-09-09T13:38:28;23.70;47.40
3868;DHT22;1949;48.152;11.528;2022-09-09T13:41:03;23.70;46.80
3868;DHT22;1949;48.152;11.528;2022-09-09T13:43:34;23.70;46.60
3868;DHT22;1949;48.152;11.528;2022-09-09T13:46:04;23.70;46.40
3868;DHT22;1949;48.152;11.528;2022-09-09T13:48:30;23.70;46.60
3868;DHT22;1949;48.152;11.528;2022-09-09T13:51:51;23.60;46.40
3868;DHT22;1949;48.152;11.528;2022-09-09T13:54:16;23.50;46.70
3868;DHT22;1949;48.152;11.528;2022-09-09T13:56:45;23.50;46.80
3868;DHT22;1949;48.152;11.528;2022-09-09T14:02:35;23.60;46.60
3868;DHT22;1949;48.152;11.528;2022-09-09T14:05:01;23.50;46.40
3868;DHT22;1949;48.152;11.528;2022-09-09T14:07:27;23.40;46.20
3868;DHT22;1949;48.152;11.528;2022-09-09T14:09:54;23.30;46.30
3868;DHT22;1949;48.152;11.528;2022-09-09T14:12:20;23.20;46.60
3868;DHT22;1949;48.152;11.528;2022-09-09T14:14:46;23.10;46.60
3868;DHT22;1949;48.152;11.528;2022-09-09T14:17:12;23.00;46.60
3868;DHT22;1949;48.152;11.528;2022-09-09T14:19:39;23.00;46.80
3868;DHT22;1949;48.152;11.528;2022-09-09T14:22:05;22.90;46.70
3868;DHT22;1949;48.152;11.528;2022-09-09T14:24:34;22.90;46.90
3868;DHT22;1949;48.152;11.528;2022-09-09T14:26:59;22.80;46.90
3868;DHT22;1949;48.152;11.528;2022-09-09T14:29:25;22.80;47.10
3868;DHT22;1949;48.152;11.528;2022-09-09T14:31:52;22.80;47.20
3868;DHT22;1949;48.152;11.528;2022-09-09T14:34:17;22.90;47.20
3868;DHT22;1949;48.152;11.528;2022-09-09T14:36:43;22.80;47.00
3868;DHT22;1949;48.152;11.528;2022-09-09T14:39:10;22.80;47.00
3868;DHT22;1949;48.152;11.528;2022-09-09T14:41:37;22.80;47.10
3868;DHT22;1949;48.152;11.528;2022-09-09T14:44:04;22.80;47.30
3868;DHT22;1949;48.152;11.528;2022-09-09T14:46:32;22.80;47.10
3868;DHT22;1949;48.152;11.528;2022-09-09T14:48:58;22.80;47.00
3868;DHT22;1949;48.152;11.528;2022-09-09T14:51:25;22.80;47.30
3868;DHT22;1949;48.152;11.528;2022-09-09T14:53:56;22.80;47.20
3868;DHT22;1949;48.152;11.528;2022-09-09T14:56:28;22.80;47.20
3868;DHT22;1949;48.152;11.528;2022-09-09T14:58:56;22.90;47.10
3868;DHT22;1949;48.152;11.528;2022-09-09T15:01:23;22.90;47.10
3868;DHT22;1949;48.152;11.528;2022-09-09T15:03:51;22.90;47.10
3868;DHT22;1949;48.152;11.528;2022-09-09T15:06:18;23.00;47.00
3868;DHT22;1949;48.152;11.528;2022-09-09T15:08:45;22.90;46.60
3868;DHT22;1949;48.152;11.528;2022-09-09T15:11:13;22.90;46.70
3868;DHT22;1949;48.152;11.528;2022-09-09T15:13:40;22.90;47.00
3868;DHT22;1949;48.152;11.528;2022-09-09T15:16:11;22.90;46.90
3868;DHT22;1949;48.152;11.528;2022-09-09T15:18:37;22.90;46.70
3868;DHT22;1949;48.152;11.528;2022-09-09T15:21:05;22.90;46.60
3868;DHT22;1949;48.152;11.528;2022-09-09T15:23:33;22.80;46.60
3868;DHT22;1949;48.152;11.528;2022-09-09T15:25:58;22.90;46.70
3868;DHT22;1949;48.152;11.528;2022-09-09T15:28:24;22.90;46.60
3868;DHT22;1949;48.152;11.528;2022-09-09T15:30:52;22.90;46.50
3868;DHT22;1949;48.152;11.528;2022-09-09T15:33:23;22.90;46.40
3868;DHT22;1949;48.152;11.528;2022-09-09T15:35:48;22.90;46.50
3868;DHT22;1949;48.152;11.528;2022-09-09T15:38:15;22.90;46.50
3868;DHT22;1949;48.152;11.528;2022-09-09T15:40:43;22.90;46.40
3868;DHT22;1949;48.152;11.528;2022-09-09T15:43:09;22.90;46.40
3868;DHT22;1949;48.152;11.528;2022-09-09T15:45:36;22.90;46.50
3868;DHT22;1949;48.152;11.528;2022-09-09T15:48:03;23.00;46.50
3868;DHT22;1949;48.152;11.528;2022-09-09T15:50:30;23.00;46.40
3868;DHT22;1949;48.152;11.528;2022-09-09T15:52:59;23.10;46.40
3868;DHT22;1949;48.152;11.528;2022-09-09T15:55:25;23.10;46.20
3868;DHT22;1949;48.152;11.528;2022-09-09T15:57:51;23.10;46.10
3868;DHT22;1949;48.152;11.528;2022-09-09T16:00:18;23.10;46.10
3868;DHT22;1949;48.152;11.528;2022-09-09T16:02:46;23.10;46.10
3868;DHT22;1949;48.152;11.528;2022-09-09T16:05:12;23.10;45.90
3868;DHT22;1949;48.152;11.528;2022-09-09T16:07:38;23.10;45.70
3868;DHT22;1949;48.152;11.528;2022-09-09T16:10:04;23.00;45.80
3868;DHT22;1949;48.152;11.528;2022-09-09T16:12:31;23.00;45.80
3868;DHT22;1949;48.152;11.528;2022-09-09T16:14:57;22.90;45.80
3868;DHT22;1949;48.152;11.528;2022-09-09T16:17:22;22.90;45.80
3868;DHT22;1949;48.152;11.528;2022-09-09T16:19:48;22.90;45.70
3868;DHT22;1949;48.152;11.528;2022-09-09T16:22:14;22.90;45.60
3868;DHT22;1949;48.152;11.528;2022-09-09T16:24:41;22.90;45.70
3868;DHT22;1949;48.152;11.528;2022-09-09T16:27:06;22.90;45.60
3868;DHT22;1949;48.152;11.528;2022-09-09T16:29:33;22.90;45.70
3868;DHT22;1949;48.152;11.528;2022-09-09T16:31:59;22.90;45.60
3868;DHT22;1949;48.152;11.528;2022-09-09T16:34:25;22.90;45.40
3868;DHT22;1949;48.152;11.528;2022-09-09T16:36:51;22.80;45.40
3868;DHT22;1949;48.152;11.528;2022-09-09T16:39:20;22.80;45.50
3868;DHT22;1949;48.152;11.528;2022-09-09T16:41:47;22.80;45.50
3868;DHT22;1949;48.152;11.528;2022-09-09T16:44:16;22.80;45.20
3868;DHT22;1949;48.152;11.528;2022-09-09T16:46:46;22.80;45.30
3868;DHT22;1949;48.152;11.528;2022-09-09T16:49:15;22.70;45.20
3868;DHT22;1949;48.152;11.528;2022-09-09T16:51:46;22.70;45.20
3868;DHT22;1949;48.152;11.528;2022-09-09T16:54:12;22.60;45.30
3868;DHT22;1949;48.152;11.528;2022-09-09T16:56:41;22.60;45.30
3868;DHT22;1949;48.152;11.528;2022-09-09T16:59:09;22.70;45.40
3868;DHT22;1949;48.152;11.528;2022-09-09T17:01:37;22.60;45.20
3868;DHT22;1949;48.152;11.528;2022-09-09T17:04:06;22.60;45.20
3868;DHT22;1949;48.152;11.528;2022-09-09T17:06:33;22.60;45.30
3868;DHT22;1949;48.152;11.528;2022-09-09T17:09:09;22.60;45.40
3868;DHT22;1949;48.152;11.528;2022-09-09T17:11:39;22.60;45.30
3868;DHT22;1949;48.152;11.528;2022-09-09T17:14:06;22.70;45.50
3868;DHT22;1949;48.152;11.528;2022-09-09T17:16:33;22.60;45.20
3868;DHT22;1949;48.152;11.528;2022-09-09T17:18:59;22.60;45.30
3868;DHT22;1949;48.152;11.528;2022-09-09T17:21:27;22.60;45.40
3868;DHT22;1949;48.152;11.528;2022-09-09T17:23:54;22.60;45.50
3868;DHT22;1949;48.152;11.528;2022-09-09T17:26:23;22.50;45.50
3868;DHT22;1949;48.152;11.528;2022-09-09T17:28:50;22.50;45.70
3868;DHT22;1949;48.152;11.528;2022-09-09T17:31:17;22.40;45.70
3868;DHT22;1949;48.152;11.528;2022-09-09T17:33:47;22.40;45.70
3868;DHT22;1949;48.152;11.528;2022-09-09T17:36:19;22.40;45.90
3868;DHT22;1949;48.152;11.528;2022-09-09T17:38:45;22.30;45.90
3868;DHT22;1949;48.152;11.528;2022-09-09T17:41:17;22.40;46.10
3868;DHT22;1949;48.152;11.528;2022-09-09T17:43:44;22.40;46.10
3868;DHT22;1949;48.152;11.528;2022-09-09T17:46:13;22.50;46.20
3868;DHT22;1949;48.152;11.528;2022-09-09T17:48:40;22.50;46.10
3868;DHT22;1949;48.152;11.528;2022-09-09T17:51:09;22.60;46.30
3868;DHT22;1949;48.152;11.528;2022-09-09T17:53:43;22.60;46.10
3868;DHT22;1949;48.152;11.528;2022-09-09T17:56:12;22.60;46.10
3868;DHT22;1949;48.152;11.528;2022-09-09T17:58:39;22.60;46.10
3868;DHT22;1949;48.152;11.528;2022-09-09T18:01:16;22.60;46.10
3868;DHT22;1949;48.152;11.528;2022-09-09T18:03:43;22.70;46.20
3868;DHT22;1949;48.152;11.528;2022-09-09T18:06:15;22.70;46.10
3868;DHT22;1949;48.152;11.528;2022-09-09T18:08:41;22.70;46.20
3868;DHT22;1949;48.152;11.528;2022-09-09T18:11:08;22.70;46.20
3868;DHT22;1949;48.152;11.528;2022-09-09T18:13:35;22.70;46.80
3868;DHT22;1949;48.152;11.528;2022-09-09T18:16:05;22.70;46.10
3868;DHT22;1949;48.152;11.528;2022-09-09T18:18:31;22.60;46.20